Time;durP1;ratioP1;P1;durP2;ratioP2;P2;SDS_P1;SDS_P2;PMS_P1;PMS_P2;Temp;Humidity;BMP_temperature;BMP_pressure;BME280_temperature;BME280_humidity;BME280_pressure;Samples;Min_cycle;Max_cycle;Signal;HPM_P1;HPM_P2
2021/06/29 00:01:12;;;;;;;9.03;7.57;;;;;;;20.80;100.00;95943.53;5064295;27;20216;-87
2021/06/29 00:03:41;;;;;;;8.90;8.00;;;;;;;20.76;100.00;95950.38;5051637;27;20559;-87
2021/06/29 00:06:08;;;;;;;8.70;7.77;;;;;;;20.63;100.00;95944.19;5051598;28;20611;-87
2021/06/29 00:08:35;;;;;;;9.03;8.13;;;;;;;20.77;100.00;95943.97;5051359;28;20706;-87
2021/06/29 00:11:02;;;;;;;9.77;7.90;;;;;;;20.64;100.00;95939.66;5051388;28;20194;-87
2021/06/29 00:13:29;;;;;;;7.97;7.27;;;;;;;20.58;100.00;95944.06;5051434;28;20281;-86
2021/06/29 00:15:56;;;;;;;8.60;7.80;;;;;;;20.61;100.00;95938.28;5051143;28;20198;-86
2021/06/29 00:18:24;;;;;;;10.77;7.43;;;;;;;20.56;100.00;95926.66;5051558;28;20201;-87
2021/06/29 00:20:52;;;;;;;9.07;8.37;;;;;;;20.50;100.00;95924.84;5051201;28;20581;-87
2021/06/29 00:23:20;;;;;;;9.57;8.57;;;;;;;20.51;100.00;95927.34;5051303;28;20704;-87
2021/06/29 00:25:47;;;;;;;12.27;8.63;;;;;;;20.65;100.00;95922.59;5051201;28;20577;-87
2021/06/29 00:28:15;;;;;;;9.83;8.30;;;;;;;20.55;100.00;95912.50;5051043;28;20198;-87
2021/06/29 00:30:42;;;;;;;9.27;8.37;;;;;;;20.47;100.00;95920.81;5050925;28;20229;-87
2021/06/29 00:33:09;;;;;;;11.27;8.97;;;;;;;20.49;100.00;95915.22;5051033;28;20684;-87
2021/06/29 00:35:37;;;;;;;9.83;8.20;;;;;;;20.57;100.00;95907.72;5050882;28;20198;-87
2021/06/29 00:38:06;;;;;;;8.93;8.13;;;;;;;20.55;100.00;95904.47;5050746;28;20735;-87
2021/06/29 00:40:33;;;;;;;8.37;7.67;;;;;;;20.47;100.00;95902.13;5050770;28;20281;-87
2021/06/29 00:43:04;;;;;;;9.10;8.30;;;;;;;20.43;100.00;95904.41;5050794;28;20202;-87
2021/06/29 00:45:31;;;;;;;10.70;8.90;;;;;;;20.40;100.00;95914.72;5050604;28;20198;-87
2021/06/29 00:47:59;;;;;;;11.40;8.97;;;;;;;20.39;100.00;95913.13;5050925;28;20741;-87
2021/06/29 00:50:26;;;;;;;8.90;8.00;;;;;;;20.50;100.00;95896.34;5041594;28;20240;-87
2021/06/29 00:52:54;;;;;;;10.83;8.60;;;;;;;20.45;100.00;95896.19;5033500;28;20594;-87
2021/06/29 00:55:23;;;;;;;9.77;8.80;;;;;;;20.38;100.00;95890.16;5030436;28;20235;-87
2021/06/29 00:57:52;;;;;;;9.17;8.37;;;;;;;20.19;100.00;95892.91;5030672;28;20205;-86
2021/06/29 01:00:21;;;;;;;9.90;9.00;;;;;;;20.19;100.00;95892.91;5030619;28;20198;-87
2021/06/29 01:02:48;;;;;;;9.77;8.83;;;;;;;20.27;100.00;95886.41;5030667;28;20205;-87
2021/06/29 01:05:16;;;;;;;8.67;7.43;;;;;;;20.20;100.00;95872.34;5030879;28;20202;-87
2021/06/29 01:07:43;;;;;;;10.80;8.07;;;;;;;20.15;100.00;95867.69;5030535;28;20255;-86
2021/06/29 01:10:11;;;;;;;10.57;8.50;;;;;;;20.25;100.00;95864.47;5030132;28;20222;-87
2021/06/29 01:12:40;;;;;;;9.53;8.47;;;;;;;20.25;100.00;95864.47;5030369;28;20202;-87
2021/06/29 01:15:09;;;;;;;9.30;7.33;;;;;;;20.08;100.00;95874.97;5030020;28;20199;-86
2021/06/29 01:17:36;;;;;;;9.10;8.30;;;;;;;20.06;100.00;95877.09;5030550;28;20207;-87
2021/06/29 01:20:13;;;;;;;9.00;8.10;;;;;;;20.17;100.00;95872.81;5030131;28;20194;-87
2021/06/29 01:22:41;;;;;;;10.30;9.40;;;;;;;20.16;100.00;95866.66;5030284;28;20197;-87
2021/06/29 01:25:11;;;;;;;11.20;8.90;;;;;;;20.15;100.00;95864.22;5030434;28;20570;-86
2021/06/29 01:27:46;;;;;;;8.23;7.53;;;;;;;19.95;100.00;95859.16;5030143;28;20199;-87
2021/06/29 01:32:59;;;;;;;8.37;7.67;;;;;;;19.89;100.00;95868.09;5030413;28;20187;-87
2021/06/29 01:35:28;;;;;;;10.30;8.00;;;;;;;19.91;100.00;95869.47;5029987;28;20194;-87
2021/06/29 01:37:55;;;;;;;8.17;7.33;;;;;;;19.96;100.00;95855.47;5030547;28;20199;-88
2021/06/29 01:40:25;;;;;;;8.53;7.83;;;;;;;19.89;100.00;95860.91;5030257;28;20624;-88
2021/06/29 01:42:55;;;;;;;10.33;8.37;;;;;;;19.95;100.00;95864.50;5030308;28;20209;-87
2021/06/29 01:45:23;;;;;;;8.70;7.87;;;;;;;19.98;100.00;95858.72;5030044;27;20240;-87
2021/06/29 01:47:56;;;;;;;10.13;8.87;;;;;;;20.04;100.00;95852.47;5041237;28;20226;-87
2021/06/29 01:50:23;;;;;;;8.63;7.80;;;;;;;19.84;100.00;95854.59;5041007;28;20290;-86
2021/06/29 01:52:59;;;;;;;10.23;9.17;;;;;;;19.92;100.00;95859.66;5040682;28;20291;-86
2021/06/29 01:55:27;;;;;;;10.63;8.17;;;;;;;19.95;100.00;95856.50;5009456;28;20202;-87
2021/06/29 01:57:55;;;;;;;11.47;8.63;;;;;;;19.93;100.00;95861.25;5010088;28;20203;-87
2021/06/29 02:00:23;;;;;;;8.30;7.60;;;;;;;19.89;100.00;95860.09;5009770;28;20191;-86
2021/06/29 02:02:50;;;;;;;9.87;8.27;;;;;;;19.90;100.00;95859.84;5009973;28;20199;-87
2021/06/29 02:05:17;;;;;;;9.70;8.50;;;;;;;20.04;100.00;95849.00;5010099;28;20564;-87
2021/06/29 02:07:45;;;;;;;10.17;8.57;;;;;;;19.94;100.00;95862.88;5010075;28;20196;-86
2021/06/29 02:10:19;;;;;;;16.50;9.07;;;;;;;19.88;100.00;95863.78;5006072;28;20262;-85
2021/06/29 02:12:46;;;;;;;9.40;8.60;;;;;;;19.80;100.00;95878.25;5009654;28;20352;-86
2021/06/29 02:15:14;;;;;;;12.27;8.90;;;;;;;19.95;100.00;95872.50;5022695;28;20282;-86
2021/06/29 02:17:42;;;;;;;10.77;9.77;;;;;;;19.83;100.00;95877.81;5112697;28;20192;-86
2021/06/29 02:20:11;;;;;;;9.53;8.57;;;;;;;19.84;100.00;95882.09;5112420;28;20631;-86
2021/06/29 02:22:38;;;;;;;9.17;8.20;;;;;;;19.85;100.00;95877.59;5112590;28;20192;-86
2021/06/29 02:25:07;;;;;;;9.40;8.50;;;;;;;19.80;100.00;95883.59;5112632;28;20611;-86
2021/06/29 02:27:36;;;;;;;8.90;8.00;;;;;;;19.59;100.00;95884.03;5112785;28;20256;-83
2021/06/29 02:30:05;;;;;;;9.10;7.57;;;;;;;19.53;100.00;95880.41;5111852;28;20226;-85
2021/06/29 02:32:32;;;;;;;8.83;8.10;;;;;;;19.57;100.00;95868.28;5112708;28;20192;-85
2021/06/29 02:34:59;;;;;;;9.07;8.27;;;;;;;19.53;100.00;95856.41;5112205;28;20196;-84
2021/06/29 02:37:27;;;;;;;8.73;7.77;;;;;;;19.67;100.00;95841.09;5112518;28;20261;-84
2021/06/29 02:39:54;;;;;;;9.90;8.50;;;;;;;19.56;100.00;95845.31;5112114;28;20614;-83
2021/06/29 02:42:21;;;;;;;7.97;7.23;;;;;;;19.66;100.00;95839.47;5112106;28;20286;-84
2021/06/29 02:44:50;;;;;;;8.97;7.87;;;;;;;19.52;100.00;95846.00;5112006;28;20199;-85
2021/06/29 02:47:17;;;;;;;8.60;7.87;;;;;;;19.42;100.00;95847.34;5111970;28;20199;-85
2021/06/29 02:49:45;;;;;;;8.90;8.00;;;;;;;19.22;100.00;95854.75;5111880;28;20226;-82
2021/06/29 02:52:12;;;;;;;11.20;9.00;;;;;;;19.39;100.00;95847.78;5022229;28;20206;-83
2021/06/29 02:54:39;;;;;;;12.33;8.90;;;;;;;19.43;100.00;95834.81;5017662;28;20239;-85
2021/06/29 02:57:08;;;;;;;9.43;8.50;;;;;;;19.59;100.00;95826.19;5028185;28;20298;-83
2021/06/29 02:59:35;;;;;;;9.80;8.90;;;;;;;19.69;100.00;95829.19;5028649;28;20747;-84
2021/06/29 03:02:04;;;;;;;9.80;8.77;;;;;;;19.62;100.00;95823.09;5031926;28;20580;-86
2021/06/29 03:04:31;;;;;;;9.73;8.03;;;;;;;19.55;100.00;95834.88;5032074;28;20663;-86
2021/06/29 03:06:58;;;;;;;12.00;10.10;;;;;;;19.79;100.00;95822.50;5031994;28;20277;-87
2021/06/29 03:09:26;;;;;;;11.23;8.83;;;;;;;19.79;100.00;95822.50;5032454;28;20773;-86
2021/06/29 03:11:53;;;;;;;11.07;9.33;;;;;;;19.77;100.00;95825.38;5044603;28;20627;-86
2021/06/29 03:14:20;;;;;;;9.63;8.70;;;;;;;19.76;100.00;95837.09;5051582;28;20258;-86
2021/06/29 03:16:48;;;;;;;9.73;8.83;;;;;;;19.68;100.00;95837.41;5050935;28;20213;-86
2021/06/29 03:19:16;;;;;;;9.93;8.97;;;;;;;19.59;100.00;95834.19;5050645;28;20194;-87
2021/06/29 03:21:49;;;;;;;8.67;7.97;;;;;;;19.66;100.00;95832.28;5052100;28;20658;-86
2021/06/29 03:24:16;;;;;;;9.93;8.60;;;;;;;19.63;100.00;95824.75;5054913;28;20188;-86
2021/06/29 03:26:43;;;;;;;10.40;9.50;;;;;;;19.59;100.00;95820.06;5051994;28;20193;-87
2021/06/29 03:29:11;;;;;;;9.17;8.23;;;;;;;19.70;100.00;95812.13;5050825;28;20274;-87
2021/06/29 03:31:38;;;;;;;11.10;9.33;;;;;;;19.63;100.00;95810.59;5050989;28;20289;-85
2021/06/29 03:34:05;;;;;;;10.30;9.17;;;;;;;19.75;100.00;95821.31;5051215;28;20734;-86
2021/06/29 03:36:34;;;;;;;12.17;9.00;;;;;;;19.64;100.00;95822.88;5046509;28;20202;-86
2021/06/29 03:39:01;;;;;;;9.60;8.67;;;;;;;19.50;100.00;95824.91;5046361;28;20209;-87
2021/06/29 03:41:29;;;;;;;9.47;8.67;;;;;;;19.55;100.00;95809.03;5051281;28;20206;-87
2021/06/29 03:43:56;;;;;;;8.77;7.90;;;;;;;19.56;100.00;95813.31;5040948;28;20253;-87
2021/06/29 03:46:23;;;;;;;11.67;9.50;;;;;;;19.62;100.00;95808.94;5032041;28;20190;-87
2021/06/29 03:48:51;;;;;;;10.83;9.73;;;;;;;19.61;100.00;95816.13;5046083;28;20205;-89
2021/06/29 03:51:18;;;;;;;9.90;8.67;;;;;;;19.63;100.00;95819.41;5052528;28;20222;-89
2021/06/29 03:53:47;;;;;;;12.23;10.70;;;;;;;19.51;100.00;95821.19;5049480;28;20733;-84
2021/06/29 03:56:27;;;;;;;10.53;9.50;;;;;;;19.53;100.00;95813.78;5050446;28;20781;-84
2021/06/29 03:58:57;;;;;;;10.60;9.53;;;;;;;19.69;100.00;95804.38;5045037;28;20206;-84
2021/06/29 04:01:25;;;;;;;10.90;9.87;;;;;;;19.75;100.00;95790.13;5031649;28;20211;-84
2021/06/29 04:03:55;;;;;;;8.80;8.10;;;;;;;19.77;100.00;95795.22;5035945;28;20262;-85
2021/06/29 04:06:23;;;;;;;9.03;8.23;;;;;;;19.72;100.00;95795.91;5051430;28;20186;-85
2021/06/29 04:08:52;;;;;;;9.67;8.87;;;;;;;19.62;100.00;95799.09;5051030;28;20225;-84
2021/06/29 04:11:20;;;;;;;9.70;8.70;;;;;;;19.47;100.00;95810.19;5050996;28;20225;-85
2021/06/29 04:13:48;;;;;;;9.77;8.80;;;;;;;19.49;100.00;95801.94;5050797;28;20297;-85
2021/06/29 04:16:15;;;;;;;9.90;9.00;;;;;;;19.58;100.00;95778.47;5041073;28;20207;-85
2021/06/29 04:18:43;;;;;;;10.33;9.43;;;;;;;19.64;100.00;95777.56;5030965;28;20259;-84
2021/06/29 04:21:11;;;;;;;12.93;9.40;;;;;;;19.68;100.00;95774.22;5031152;28;20216;-84
2021/06/29 04:23:39;;;;;;;9.37;8.47;;;;;;;19.73;100.00;95772.72;5030966;28;20199;-84
2021/06/29 04:26:08;;;;;;;9.67;8.70;;;;;;;19.70;100.00;95769.47;5030776;28;20252;-84
2021/06/29 04:28:35;;;;;;;9.87;8.97;;;;;;;19.70;100.00;95776.66;5030945;28;20201;-82
2021/06/29 04:31:03;;;;;;;10.20;9.37;;;;;;;19.68;100.00;95770.75;5033229;28;20262;-82
2021/06/29 04:33:30;;;;;;;13.83;8.50;;;;;;;19.71;100.00;95771.13;5050827;28;20194;-84
2021/06/29 04:35:57;;;;;;;9.83;8.83;;;;;;;19.81;100.00;95761.72;5050801;28;20378;-83
2021/06/29 04:38:25;;;;;;;10.53;9.47;;;;;;;19.92;100.00;95747.63;5050426;28;20200;-83
2021/06/29 04:40:52;;;;;;;9.93;9.00;;;;;;;19.98;100.00;95743.22;5050674;28;20190;-83
2021/06/29 04:43:21;;;;;;;10.00;9.20;;;;;;;19.97;100.00;95738.94;5050737;28;20666;-83
2021/06/29 04:45:48;;;;;;;9.87;8.93;;;;;;;20.03;100.00;95733.47;5041647;28;20206;-83
2021/06/29 04:48:16;;;;;;;11.20;8.70;;;;;;;20.20;100.00;95728.28;5031432;28;20287;-83
2021/06/29 04:50:44;;;;;;;10.07;9.27;;;;;;;20.35;100.00;95720.59;5050377;28;20225;-83
2021/06/29 04:53:12;;;;;;;9.53;8.73;;;;;;;20.45;100.00;95722.69;5050377;28;20213;-83
2021/06/29 04:55:39;;;;;;;10.87;9.20;;;;;;;20.43;100.00;95716.75;5050418;28;20187;-83
2021/06/29 04:58:07;;;;;;;10.17;9.27;;;;;;;20.41;100.00;95717.00;5050292;28;20285;-83
2021/06/29 05:00:38;;;;;;;10.10;9.00;;;;;;;20.52;100.00;95706.59;5030437;28;20683;-83
2021/06/29 05:03:05;;;;;;;9.43;8.63;;;;;;;20.66;100.00;95694.59;5030892;28;20183;-83
2021/06/29 05:05:33;;;;;;;9.63;8.63;;;;;;;20.70;100.00;95684.25;5030099;28;20203;-83
2021/06/29 05:08:00;;;;;;;10.83;9.40;;;;;;;20.73;100.00;95699.81;5030438;28;20203;-83
2021/06/29 05:10:28;;;;;;;9.03;8.33;;;;;;;20.76;100.00;95736.72;5030236;28;20222;-83
2021/06/29 05:12:56;;;;;;;9.47;8.63;;;;;;;20.86;100.00;95755.63;5030429;28;20203;-83
2021/06/29 05:15:23;;;;;;;9.40;8.57;;;;;;;21.00;100.00;95772.22;5030454;28;20271;-83
2021/06/29 05:17:52;;;;;;;11.03;9.10;;;;;;;21.13;100.00;95786.13;5030405;28;20230;-83
2021/06/29 05:20:19;;;;;;;9.60;8.70;;;;;;;21.20;100.00;95801.19;5030110;28;20194;-83
2021/06/29 05:22:47;;;;;;;10.50;9.43;;;;;;;21.36;100.00;95805.81;5029928;28;20259;-83
2021/06/29 05:25:14;;;;;;;10.17;9.00;;;;;;;21.51;100.00;95814.16;5028959;28;20638;-83
2021/06/29 05:27:43;;;;;;;10.27;9.47;;;;;;;21.56;100.00;95830.28;5030225;28;20230;-83
2021/06/29 05:30:12;;;;;;;11.00;8.70;;;;;;;21.68;100.00;95840.91;5029745;28;20314;-83
2021/06/29 05:32:39;;;;;;;10.13;8.57;;;;;;;21.82;100.00;95844.13;5030090;28;20198;-83
2021/06/29 05:35:09;;;;;;;9.30;8.40;;;;;;;21.97;100.00;95840.94;5029794;28;20199;-83
2021/06/29 05:37:37;;;;;;;9.33;8.43;;;;;;;22.15;100.00;95847.94;5029973;28;20194;-83
2021/06/29 05:40:06;;;;;;;9.07;8.23;;;;;;;22.36;100.00;95857.13;5029756;28;20202;-83
2021/06/29 05:42:33;;;;;;;10.13;8.50;;;;;;;22.52;100.00;95862.50;5029972;28;20201;-83
2021/06/29 05:45:00;;;;;;;9.23;8.27;;;;;;;22.74;100.00;95867.09;5029685;28;20199;-83
2021/06/29 05:47:28;;;;;;;8.87;8.17;;;;;;;22.95;100.00;95869.06;5029681;28;20732;-83
2021/06/29 05:49:55;;;;;;;8.93;7.93;;;;;;;23.16;100.00;95862.09;5029745;28;20586;-83
2021/06/29 05:52:25;;;;;;;9.87;7.37;;;;;;;23.41;100.00;95858.94;5029905;28;20289;-83
2021/06/29 05:54:52;;;;;;;8.67;7.70;;;;;;;23.57;100.00;95857.25;5029329;28;20262;-83
2021/06/29 05:57:20;;;;;;;8.87;7.97;;;;;;;23.87;100.00;95856.03;5029695;28;20198;-83
2021/06/29 05:59:47;;;;;;;10.50;8.50;;;;;;;24.18;100.00;95843.72;5028196;28;20199;-82
2021/06/29 06:02:15;;;;;;;8.73;7.37;;;;;;;24.38;100.00;95841.16;5028081;28;20792;-83
2021/06/29 06:04:42;;;;;;;9.37;8.30;;;;;;;24.36;100.00;95831.78;5029424;28;20736;-83
2021/06/29 06:07:09;;;;;;;11.03;7.50;;;;;;;24.50;100.00;95832.97;5029563;28;20683;-83
2021/06/29 06:09:38;;;;;;;9.43;8.27;;;;;;;24.57;100.00;95838.94;5029418;28;20202;-83
2021/06/29 06:12:06;;;;;;;9.53;8.17;;;;;;;24.75;100.00;95837.72;5029496;28;20313;-83
2021/06/29 06:14:33;;;;;;;10.10;8.40;;;;;;;24.95;100.00;95822.81;5029190;28;20203;-83
2021/06/29 06:17:01;;;;;;;10.40;9.40;;;;;;;25.14;100.00;95803.28;5029497;28;20230;-83
2021/06/29 06:19:28;;;;;;;11.17;9.03;;;;;;;25.14;100.00;95797.09;5029406;28;20195;-83
2021/06/29 06:21:55;;;;;;;10.13;8.60;;;;;;;25.43;100.00;95791.31;5029099;28;20199;-83
2021/06/29 06:24:23;;;;;;;9.13;8.33;;;;;;;25.52;100.00;95787.84;5029222;28;20199;-83
2021/06/29 06:26:51;;;;;;;15.10;8.87;;;;;;;25.60;100.00;95783.84;5029632;28;20308;-84
2021/06/29 06:29:19;;;;;;;9.13;8.20;;;;;;;25.51;100.00;95796.19;5029088;28;20202;-84
2021/06/29 06:31:46;;;;;;;9.00;8.20;;;;;;;25.41;100.00;95794.25;5028804;28;20227;-84
2021/06/29 06:34:14;;;;;;;10.43;8.00;;;;;;;25.47;100.00;95793.22;5029105;28;20203;-83
2021/06/29 06:36:41;;;;;;;10.70;8.60;;;;;;;25.84;100.00;95792.28;5029266;28;20213;-83
2021/06/29 06:39:09;;;;;;;9.53;8.53;;;;;;;26.12;100.00;95790.13;5028884;28;20237;-84
2021/06/29 06:41:36;;;;;;;9.37;8.43;;;;;;;26.27;100.00;95796.31;5029092;28;20198;-84
2021/06/29 06:44:05;;;;;;;9.67;8.47;;;;;;;26.54;100.00;95796.09;5028617;28;20202;-84
2021/06/29 06:46:32;;;;;;;8.97;8.17;;;;;;;26.20;100.00;95793.09;5028648;28;20202;-84
2021/06/29 06:49:00;;;;;;;9.40;8.60;;;;;;;26.06;100.00;95800.09;5028746;28;20276;-83
2021/06/29 06:51:27;;;;;;;8.80;8.00;;;;;;;26.21;100.00;95800.09;5028825;28;20270;-84
2021/06/29 06:53:54;;;;;;;9.83;8.67;;;;;;;26.20;100.00;95806.56;5028644;28;20269;-83
2021/06/29 06:56:44;;;;;;;13.27;8.70;;;;;;;26.42;100.00;95829.72;5035724;28;20178;-84
2021/06/29 06:59:13;;;;;;;10.00;7.45;;;;;;;26.73;100.00;95835.94;5028797;28;20193;-84
2021/06/29 07:01:41;;;;;;;9.32;8.35;;;;;;;27.03;100.00;95840.47;5028544;28;20236;-84
2021/06/29 07:04:08;;;;;;;8.43;7.72;;;;;;;27.06;100.00;95823.75;5028831;28;20677;-84
2021/06/29 07:06:35;;;;;;;12.93;8.43;;;;;;;27.26;100.00;95823.72;5028741;28;20195;-84
2021/06/29 07:09:03;;;;;;;8.75;7.90;;;;;;;27.45;100.00;95825.81;5028306;28;20255;-84
2021/06/29 07:11:31;;;;;;;10.45;9.38;;;;;;;27.21;100.00;95810.25;5028661;28;20703;-85
2021/06/29 07:13:58;;;;;;;9.68;8.77;;;;;;;27.21;100.00;95802.16;5028834;28;20199;-84
2021/06/29 07:16:27;;;;;;;10.88;9.93;;;;;;;27.13;100.00;95807.31;5028712;28;20294;-84
2021/06/29 07:18:54;;;;;;;10.00;9.20;;;;;;;27.11;100.00;95788.66;5028735;28;20195;-84
2021/06/29 07:21:26;;;;;;;10.65;9.65;;;;;;;27.20;100.00;95807.84;5027946;28;20285;-84
2021/06/29 07:23:54;;;;;;;11.00;9.88;;;;;;;27.10;100.00;95813.22;5028502;28;20244;-84
2021/06/29 07:26:21;;;;;;;12.10;10.85;;;;;;;27.17;100.00;95801.09;5028515;28;20294;-84
2021/06/29 07:28:49;;;;;;;13.27;10.75;;;;;;;27.01;100.00;95815.66;5028251;28;20195;-84
2021/06/29 07:31:18;;;;;;;11.02;9.93;;;;;;;27.40;100.00;95805.06;5028498;28;20729;-84
2021/06/29 07:33:47;;;;;;;12.27;11.18;;;;;;;27.68;100.00;95845.97;5028614;28;20617;-84
2021/06/29 07:36:16;;;;;;;11.73;10.57;;;;;;;27.74;100.00;95852.94;5028393;28;20204;-85
2021/06/29 07:38:44;;;;;;;12.25;11.15;;;;;;;27.76;100.00;95836.50;5027967;28;20203;-84
2021/06/29 07:41:12;;;;;;;13.57;12.27;;;;;;;27.74;100.00;95856.47;5028376;28;20247;-85
2021/06/29 07:43:39;;;;;;;11.40;10.40;;;;;;;27.29;100.00;95854.72;5028192;28;20663;-84
2021/06/29 07:46:07;;;;;;;12.98;11.70;;;;;;;27.80;100.00;95853.75;5028158;28;20197;-84
2021/06/29 07:48:34;;;;;;;16.30;11.63;;;;;;;28.04;100.00;95862.78;5031223;28;20190;-84
2021/06/29 07:51:05;;;;;;;12.05;11.15;;;;;;;27.83;100.00;95875.59;5031882;28;20654;-84
2021/06/29 07:53:33;;;;;;;15.77;10.45;;;;;;;28.00;100.00;95880.66;5031625;28;20234;-85
2021/06/29 07:56:00;;;;;;;16.27;12.68;;;;;;;28.08;100.00;95890.06;5031314;28;20202;-84
2021/06/29 07:58:28;;;;;;;14.48;11.30;;;;;;;28.15;100.00;95904.06;5031466;28;20282;-84
2021/06/29 08:00:56;;;;;;;12.65;11.45;;;;;;;28.47;100.00;95897.41;5031766;28;20620;-85
2021/06/29 08:03:23;;;;;;;13.30;12.00;;;;;;;28.21;100.00;95927.28;5031498;28;20259;-85
2021/06/29 08:05:51;;;;;;;12.20;11.05;;;;;;;28.43;100.00;95910.66;5031014;28;20252;-85
2021/06/29 08:08:19;;;;;;;12.98;11.77;;;;;;;28.46;100.00;95931.75;5031770;28;20259;-85
2021/06/29 08:10:47;;;;;;;13.98;12.00;;;;;;;28.47;100.00;95932.53;5031395;28;20257;-85
2021/06/29 08:13:15;;;;;;;11.60;10.30;;;;;;;28.68;100.00;95915.09;5031150;28;20272;-85
2021/06/29 08:15:42;;;;;;;12.48;11.23;;;;;;;28.66;100.00;95925.38;5031407;28;20579;-85
2021/06/29 08:18:10;;;;;;;11.68;10.20;;;;;;;28.99;100.00;95921.06;5031547;28;20206;-85
2021/06/29 08:20:37;;;;;;;16.83;11.55;;;;;;;28.62;100.00;95938.66;5031199;28;20194;-85
2021/06/29 08:23:05;;;;;;;16.27;11.00;;;;;;;28.74;100.00;95945.59;5031188;28;20235;-85
2021/06/29 08:25:35;;;;;;;11.73;10.63;;;;;;;28.65;100.00;95930.00;5030683;28;20735;-85
2021/06/29 08:28:02;;;;;;;12.05;10.85;;;;;;;28.70;100.00;95922.94;5031189;28;20203;-85
2021/06/29 08:30:29;;;;;;;10.70;9.73;;;;;;;28.42;100.00;95942.31;5030863;28;20198;-85
2021/06/29 08:32:57;;;;;;;12.82;9.52;;;;;;;28.59;100.00;95933.81;5030752;28;20313;-85
2021/06/29 08:35:24;;;;;;;11.45;10.38;;;;;;;28.64;100.00;95998.66;5031203;28;20251;-86
2021/06/29 08:37:51;;;;;;;11.82;10.63;;;;;;;28.65;100.00;95962.44;5030981;28;20734;-85
2021/06/29 08:40:19;;;;;;;12.23;11.10;;;;;;;28.50;100.00;95932.00;5030702;28;20230;-85
2021/06/29 08:42:48;;;;;;;13.13;11.23;;;;;;;28.43;100.00;95976.34;5030687;28;20645;-85
2021/06/29 08:45:17;;;;;;;11.73;10.52;;;;;;;28.65;100.00;95970.56;5030729;28;20234;-86
2021/06/29 08:47:45;;;;;;;10.05;9.05;;;;;;;28.80;100.00;96020.22;5030769;28;20206;-85
2021/06/29 08:50:14;;;;;;;9.73;8.77;;;;;;;28.71;100.00;96006.47;5030968;28;20231;-86
2021/06/29 08:52:42;;;;;;;11.63;9.60;;;;;;;28.77;100.00;95985.63;5030603;28;20223;-85
2021/06/29 08:55:11;;;;;;;9.70;8.82;;;;;;;28.73;100.00;96027.84;5030462;28;20238;-85
2021/06/29 08:57:39;;;;;;;11.40;10.20;;;;;;;29.12;100.00;95995.38;5030795;28;20263;-86
2021/06/29 09:00:12;;;;;;;11.70;10.18;;;;;;;29.06;100.00;96037.94;5030215;28;20203;-85
2021/06/29 09:02:41;;;;;;;13.23;8.82;;;;;;;28.85;100.00;96058.88;5030708;28;20226;-85
2021/06/29 09:05:21;;;;;;;10.73;9.60;;;;;;;29.15;100.00;96025.38;5030322;28;20655;-85
2021/06/29 09:08:00;;;;;;;13.52;10.00;;;;;;;29.28;100.00;96012.31;5030614;28;20218;-85
2021/06/29 09:10:28;;;;;;;13.15;10.32;;;;;;;29.07;100.00;96092.84;5030700;28;20187;-85
2021/06/29 09:12:56;;;;;;;14.07;9.90;;;;;;;29.39;100.00;95989.47;5030172;28;20226;-85
2021/06/29 09:15:28;;;;;;;12.18;9.52;;;;;;;29.70;100.00;96002.75;5030153;28;20194;-86
2021/06/29 09:17:58;;;;;;;10.73;9.63;;;;;;;29.65;100.00;96062.34;5030506;28;20226;-86
2021/06/29 09:20:27;;;;;;;11.15;9.95;;;;;;;29.44;100.00;96065.22;5030007;28;20203;-86
2021/06/29 09:22:57;;;;;;;11.98;11.07;;;;;;;29.36;100.00;96082.06;5030366;28;20251;-86
2021/06/29 09:25:27;;;;;;;12.23;10.10;;;;;;;28.93;100.00;96095.34;5030415;28;20569;-85
2021/06/29 09:27:55;;;;;;;11.70;10.02;;;;;;;29.41;100.00;96038.72;5030325;28;20683;-86
2021/06/29 09:30:36;;;;;;;11.18;9.30;;;;;;;29.64;100.00;96058.03;5029867;28;20238;-86
2021/06/29 09:33:06;;;;;;;9.90;9.00;;;;;;;29.52;100.00;96116.06;5030413;28;20701;-86
2021/06/29 09:35:35;;;;;;;12.55;9.55;;;;;;;29.35;100.00;96096.72;5030040;28;20218;-85
2021/06/29 09:38:03;;;;;;;11.75;9.48;;;;;;;29.64;100.00;96082.41;5029938;28;20245;-86
2021/06/29 09:40:33;;;;;;;11.13;9.48;;;;;;;29.40;100.00;96123.72;5029851;28;20206;-85
2021/06/29 09:43:23;;;;;;;10.57;8.95;;;;;;;29.42;100.00;96142.41;5030015;28;20226;-85
2021/06/29 09:45:55;;;;;;;9.55;8.73;;;;;;;29.77;100.00;96100.72;5024593;28;20793;-85
2021/06/29 09:48:44;;;;;;;9.80;9.00;;;;;;;30.27;100.00;96110.28;5029817;28;20198;-85
2021/06/29 09:51:17;;;;;;;8.40;7.63;;;;;;;29.60;100.00;96201.34;5024731;28;20705;-86
2021/06/29 09:53:47;;;;;;;9.35;8.50;;;;;;;29.52;100.00;96174.84;5029563;28;20231;-86
2021/06/29 09:56:16;;;;;;;8.60;7.88;;;;;;;29.52;100.00;96164.00;5029894;28;20286;-86
2021/06/29 09:58:46;;;;;;;8.95;8.25;;;;;;;29.55;100.00;96218.41;5029767;28;20190;-86
2021/06/29 10:01:19;;;;;;;9.75;8.85;;;;;;;29.71;100.00;96173.06;5029691;28;20198;-85
2021/06/29 10:03:51;;;;;;;10.10;8.48;;;;;;;29.91;100.00;96180.25;5029997;28;20187;-86
2021/06/29 10:06:20;;;;;;;9.48;8.57;;;;;;;30.18;100.00;96198.72;5029519;28;20257;-86
2021/06/29 10:08:49;;;;;;;9.95;8.40;;;;;;;30.45;100.00;96187.34;5029557;28;20260;-85
2021/06/29 10:11:22;;;;;;;8.52;7.93;;;;;;;30.45;100.00;96181.94;5028790;28;20198;-86
2021/06/29 10:13:58;;;;;;;9.77;8.40;;;;;;;30.19;100.00;96232.06;5029405;28;20256;-85
2021/06/29 10:16:30;;;;;;;8.82;8.05;;;;;;;30.29;100.00;96183.19;5029756;28;20252;-87
2021/06/29 10:19:18;;;;;;;8.73;8.02;;;;;;;30.36;100.00;96191.78;5029754;28;20278;-86
2021/06/29 10:21:47;;;;;;;9.88;9.00;;;;;;;30.46;100.00;96190.88;5029306;28;20269;-86
2021/06/29 10:24:17;;;;;;;12.65;8.18;;;;;;;30.40;100.00;96187.38;5029173;28;20242;-86
2021/06/29 10:26:47;;;;;;;10.05;8.07;;;;;;;30.47;100.00;96140.94;5029100;28;20205;-85
2021/06/29 10:29:16;;;;;;;9.77;8.75;;;;;;;30.32;100.00;96185.31;5029545;28;20590;-86
2021/06/29 10:31:48;;;;;;;10.38;7.85;;;;;;;30.38;100.00;96232.16;5029202;28;20414;-86
2021/06/29 10:34:16;;;;;;;9.40;8.60;;;;;;;30.48;100.00;96241.03;5029295;28;20187;-86
2021/06/29 10:36:46;;;;;;;9.25;8.40;;;;;;;30.53;100.00;96249.09;5029554;28;20226;-86
2021/06/29 10:39:15;;;;;;;9.43;8.50;;;;;;;30.68;100.00;96252.75;5029724;28;20251;-86
2021/06/29 10:41:47;;;;;;;9.45;8.07;;;;;;;30.40;100.00;96276.88;5029033;28;20206;-86
2021/06/29 10:44:17;;;;;;;9.80;7.25;;;;;;;30.63;100.00;96272.59;5029012;28;20226;-86
2021/06/29 10:46:48;;;;;;;9.43;8.52;;;;;;;30.73;100.00;96241.84;5029330;28;20190;-86
2021/06/29 10:49:37;;;;;;;7.82;7.10;;;;;;;30.67;100.00;96238.38;5029250;28;20269;-86
2021/06/29 10:52:08;;;;;;;9.00;8.30;;;;;;;30.75;100.00;96266.78;5028985;28;20753;-86
2021/06/29 10:54:46;;;;;;;9.25;8.38;;;;;;;30.73;100.00;96258.13;5028803;28;20281;-86
2021/06/29 10:57:16;;;;;;;8.73;7.68;;;;;;;30.73;100.00;96283.34;5028993;28;20195;-86
2021/06/29 10:59:46;;;;;;;9.98;7.68;;;;;;;30.73;100.00;96294.19;5029181;28;20194;-85
2021/06/29 11:02:17;;;;;;;7.55;7.05;;;;;;;31.01;100.00;96279.00;5028974;28;20214;-86
2021/06/29 11:04:55;;;;;;;7.55;6.95;;;;;;;31.32;100.00;96265.09;5028835;28;20194;-86
2021/06/29 11:07:47;;;;;;;9.10;8.20;;;;;;;30.87;100.00;96269.94;5028872;28;20186;-86
2021/06/29 11:10:28;;;;;;;8.68;7.88;;;;;;;30.46;100.00;96281.16;5009437;28;20764;-86
2021/06/29 11:12:59;;;;;;;7.50;6.90;;;;;;;29.88;100.00;96264.00;5028564;28;20246;-86
2021/06/29 11:15:49;;;;;;;8.77;7.60;;;;;;;30.32;100.00;96261.22;5028909;28;20309;-86
2021/06/29 11:18:19;;;;;;;8.43;7.72;;;;;;;30.67;100.00;96279.06;5028960;28;20190;-86
2021/06/29 11:20:49;;;;;;;9.07;8.18;;;;;;;30.67;100.00;96259.28;5029065;28;20251;-86
2021/06/29 11:23:31;;;;;;;11.27;8.60;;;;;;;30.81;100.00;96232.28;5032008;28;20635;-86
2021/06/29 11:26:00;;;;;;;8.68;7.97;;;;;;;30.62;100.00;96272.88;5012312;28;20188;-85
2021/06/29 11:28:31;;;;;;;8.98;7.80;;;;;;;30.59;100.00;96259.88;5012324;28;20200;-86
2021/06/29 11:31:08;;;;;;;8.07;7.28;;;;;;;30.53;100.00;96276.22;5012411;28;20637;-86